createdAt,value
2019-01-28T00:00:54.704Z,0.60
2019-01-28T00:03:23.861Z,0.60
2019-01-28T00:05:52.756Z,0.70
2019-01-28T00:08:22.048Z,0.80
2019-01-28T00:10:51.025Z,0.60
2019-01-28T00:13:20.345Z,0.60
2019-01-28T00:15:50.976Z,0.70
2019-01-28T00:18:19.896Z,0.60
2019-01-28T00:20:48.824Z,0.70
2019-01-28T00:23:17.680Z,0.60
2019-01-28T00:25:46.664Z,0.60
2019-01-28T00:28:15.584Z,0.60
2019-01-28T00:30:44.552Z,0.70
2019-01-28T00:33:13.424Z,0.70
2019-01-28T00:35:42.392Z,0.70
2019-01-28T00:38:11.393Z,0.80
2019-01-28T00:40:40.452Z,0.70
2019-01-28T00:43:09.688Z,0.70
2019-01-28T00:45:38.593Z,0.70
2019-01-28T00:48:07.572Z,0.70
2019-01-28T00:50:36.484Z,0.80
2019-01-28T00:53:05.952Z,0.80
2019-01-28T00:55:34.927Z,0.80
2019-01-28T00:58:03.828Z,0.70
2019-01-28T01:00:33.344Z,0.70
2019-01-28T01:03:02.645Z,0.80
2019-01-28T01:05:31.624Z,0.90
2019-01-28T01:08:00.829Z,0.80
2019-01-28T01:10:29.738Z,0.80
2019-01-28T01:12:58.633Z,0.90
2019-01-28T01:15:27.917Z,0.80
2019-01-28T01:17:56.837Z,0.80
2019-01-28T01:20:25.874Z,0.80
2019-01-28T01:22:54.784Z,0.70
2019-01-28T01:25:23.765Z,1.00
2019-01-28T01:27:52.878Z,0.70
2019-01-28T01:30:22.177Z,0.80
2019-01-28T01:32:51.072Z,0.80
2019-01-28T01:35:20.392Z,0.90
2019-01-28T01:37:49.211Z,0.80
2019-01-28T01:40:18.453Z,0.77
2019-01-28T01:42:47.365Z,0.90
2019-01-28T01:45:17.869Z,0.72
2019-01-28T01:47:46.846Z,0.78
2019-01-28T01:50:16.030Z,0.80
2019-01-28T01:52:44.872Z,0.90
2019-01-28T01:55:14.860Z,0.80
2019-01-28T01:57:43.770Z,1.00
2019-01-28T02:00:15.416Z,0.80
2019-01-28T02:02:44.401Z,0.95
2019-01-28T02:05:14.014Z,0.80
2019-01-28T02:07:42.945Z,0.90
2019-01-28T02:10:14.873Z,0.90
2019-01-28T02:12:43.863Z,0.80
2019-01-28T02:15:15.325Z,0.80
2019-01-28T02:17:44.317Z,1.00
2019-01-28T02:20:13.512Z,1.10
2019-01-28T02:22:42.495Z,1.00
2019-01-28T02:25:11.944Z,1.02
2019-01-28T02:27:40.934Z,0.90
2019-01-28T02:30:12.097Z,0.90
2019-01-28T02:32:41.318Z,1.10
2019-01-28T02:35:10.617Z,0.90
2019-01-28T02:37:39.533Z,1.00
2019-01-28T02:40:14.905Z,0.80
2019-01-28T02:42:43.993Z,0.90
2019-01-28T02:45:13.629Z,0.90
2019-01-28T02:47:42.637Z,0.90
2019-01-28T02:50:14.160Z,0.93
2019-01-28T02:52:43.191Z,0.90
2019-01-28T02:55:12.497Z,0.85
2019-01-28T02:57:41.540Z,1.00
2019-01-28T03:00:16.509Z,1.25
2019-01-28T03:02:45.545Z,1.20
2019-01-28T03:05:15.489Z,0.93
2019-01-28T03:07:44.425Z,1.10
2019-01-28T03:10:15.852Z,1.10
2019-01-28T03:12:44.844Z,1.10
2019-01-28T03:15:14.667Z,1.10
2019-01-28T03:17:43.671Z,1.02
2019-01-28T03:20:13.009Z,1.15
2019-01-28T03:22:42.373Z,1.10
2019-01-28T03:25:12.721Z,1.00
2019-01-28T03:27:42.069Z,1.10
2019-01-28T03:30:13.597Z,1.00
2019-01-28T03:32:42.938Z,1.00
2019-01-28T03:35:12.265Z,1.20
2019-01-28T03:37:41.285Z,0.95
2019-01-28T03:40:29.406Z,0.90
2019-01-28T03:42:58.528Z,1.00
2019-01-28T03:45:27.457Z,3.85
2019-01-28T03:47:56.465Z,3.60
2019-01-28T03:50:25.471Z,1.80
2019-01-28T03:52:54.549Z,1.10
2019-01-28T03:55:23.553Z,1.30
2019-01-28T03:57:52.558Z,1.40
2019-01-28T04:00:23.726Z,2.70
2019-01-28T04:02:52.947Z,1.45
2019-01-28T04:05:22.304Z,1.87
2019-01-28T04:07:51.317Z,1.82
2019-01-28T04:10:22.158Z,1.27
2019-01-28T04:12:51.159Z,1.27
2019-01-28T04:15:21.259Z,2.15
2019-01-28T04:17:50.609Z,2.50
2019-01-28T04:20:21.101Z,2.22
2019-01-28T04:22:50.386Z,1.37
2019-01-28T04:25:19.380Z,2.55
2019-01-28T04:27:48.416Z,1.30
2019-01-28T04:30:19.422Z,2.15
2019-01-28T04:32:48.763Z,2.50
2019-01-28T04:35:18.093Z,2.50
2019-01-28T04:37:47.117Z,1.60
2019-01-28T04:40:16.347Z,1.70
2019-01-28T04:42:45.373Z,1.82
2019-01-28T04:45:16.113Z,2.10
2019-01-28T04:47:45.509Z,0.90
2019-01-28T04:50:16.381Z,1.40
2019-01-28T04:52:45.756Z,1.10
2019-01-28T04:55:15.344Z,1.30
2019-01-28T04:57:44.389Z,0.90
2019-01-28T05:00:16.305Z,1.12
2019-01-28T05:02:45.312Z,1.37
2019-01-28T05:05:14.575Z,1.00
2019-01-28T05:07:43.585Z,1.17
2019-01-28T05:10:13.884Z,0.90
2019-01-28T05:12:43.594Z,1.10
2019-01-28T05:15:14.041Z,1.10
2019-01-28T05:17:43.016Z,1.12
2019-01-28T05:20:13.103Z,1.20
2019-01-28T05:22:42.096Z,1.32
2019-01-28T05:25:12.310Z,1.40
2019-01-28T05:27:41.297Z,1.22
2019-01-28T05:30:13.787Z,1.20
2019-01-28T05:32:42.812Z,1.05
2019-01-28T05:35:14.760Z,1.00
2019-01-28T05:37:44.098Z,1.07
2019-01-28T05:40:15.705Z,0.90
2019-01-28T05:42:44.704Z,1.10
2019-01-28T05:45:15.208Z,1.10
2019-01-28T05:47:44.213Z,1.10
2019-01-28T05:50:13.498Z,1.27
2019-01-28T05:52:42.498Z,1.10
2019-01-28T05:55:12.130Z,1.10
2019-01-28T05:57:41.053Z,1.10
2019-01-28T06:00:14.990Z,1.00
2019-01-28T06:02:44.300Z,0.90
2019-01-28T06:05:13.611Z,0.90
2019-01-28T06:07:42.600Z,0.98
2019-01-28T06:10:12.098Z,0.80
2019-01-28T06:12:41.740Z,1.00
2019-01-28T06:15:12.683Z,1.00
2019-01-28T06:17:41.614Z,1.00
2019-01-28T06:20:16.667Z,1.10
2019-01-28T06:22:45.668Z,0.80
2019-01-28T06:25:15.032Z,1.00
2019-01-28T06:27:44.292Z,1.10
2019-01-28T06:30:16.341Z,0.90
2019-01-28T06:32:45.413Z,1.30
2019-01-28T06:35:14.597Z,1.30
2019-01-28T06:37:43.613Z,1.00
2019-01-28T06:40:14.541Z,0.85
2019-01-28T06:42:43.545Z,0.90
2019-01-28T06:45:13.617Z,0.90
2019-01-28T06:47:46.896Z,1.20
2019-01-28T06:50:14.518Z,0.90
2019-01-28T06:52:43.521Z,0.90
2019-01-28T06:55:12.516Z,0.70
2019-01-28T06:57:41.821Z,1.00
2019-01-28T07:00:15.600Z,0.80
2019-01-28T07:02:44.526Z,0.60
2019-01-28T07:05:13.735Z,0.90
2019-01-28T07:07:42.729Z,0.90
2019-01-28T07:10:12.332Z,1.00
2019-01-28T07:12:41.613Z,0.80
2019-01-28T07:15:11.738Z,0.80
2019-01-28T07:17:40.754Z,0.80
2019-01-28T07:20:13.591Z,0.88
2019-01-28T07:22:42.586Z,0.95
2019-01-28T07:25:11.898Z,1.10
2019-01-28T07:27:40.884Z,1.00
2019-01-28T07:30:13.024Z,0.90
2019-01-28T07:32:42.012Z,1.10
2019-01-28T07:35:11.354Z,0.90
2019-01-28T07:37:40.266Z,1.10
2019-01-28T07:40:09.861Z,1.00
2019-01-28T07:42:38.864Z,1.00
2019-01-28T07:45:11.681Z,1.20
2019-01-28T07:47:41.333Z,1.50
2019-01-28T07:50:10.436Z,1.20
2019-01-28T07:52:39.442Z,1.20
2019-01-28T07:55:08.946Z,1.40
2019-01-28T07:57:37.885Z,1.00
2019-01-28T08:00:08.912Z,1.10
2019-01-28T08:02:37.911Z,1.00
2019-01-28T08:05:08.683Z,1.50
2019-01-28T08:07:38.021Z,1.00
2019-01-28T08:10:08.465Z,1.37
2019-01-28T08:12:37.467Z,1.35
2019-01-28T08:15:07.726Z,1.27
2019-01-28T08:17:37.072Z,1.00
2019-01-28T08:20:11.575Z,1.05
2019-01-28T08:22:38.909Z,1.20
2019-01-28T08:25:09.613Z,1.50
2019-01-28T08:27:38.644Z,1.12
2019-01-28T08:30:11.461Z,1.30
2019-01-28T08:32:40.813Z,1.00
2019-01-28T08:35:09.831Z,1.05
2019-01-28T08:37:38.846Z,1.20
2019-01-28T08:40:08.366Z,1.10
2019-01-28T08:42:37.390Z,1.10
2019-01-28T08:45:08.493Z,1.10
2019-01-28T08:47:37.515Z,0.90
2019-01-28T08:50:08.204Z,1.10
2019-01-28T08:52:37.150Z,1.00
2019-01-28T08:55:07.950Z,1.10
2019-01-28T08:57:36.957Z,0.88
2019-01-28T09:00:09.200Z,1.22
2019-01-28T09:02:38.558Z,1.10
2019-01-28T09:05:08.216Z,1.20
2019-01-28T09:07:37.212Z,1.10
2019-01-28T09:10:07.133Z,1.10
2019-01-28T09:12:36.136Z,0.90
2019-01-28T09:15:06.161Z,1.50
2019-01-28T09:17:35.277Z,1.10
2019-01-28T09:20:05.781Z,1.00
2019-01-28T09:22:34.792Z,1.10
2019-01-28T09:25:04.312Z,1.20
2019-01-28T09:27:33.428Z,0.90
2019-01-28T09:30:02.501Z,1.00
2019-01-28T09:32:31.493Z,1.10
2019-01-28T09:35:00.516Z,0.90
2019-01-28T09:37:29.867Z,1.00
2019-01-28T09:39:59.148Z,1.20
2019-01-28T09:42:28.128Z,0.90
2019-01-28T09:44:57.153Z,1.07
2019-01-28T09:47:26.424Z,1.15
2019-01-28T09:49:55.440Z,1.00
2019-01-28T09:52:24.733Z,1.10
2019-01-28T09:54:54.012Z,1.05
2019-01-28T09:57:23.540Z,1.10
2019-01-28T09:59:53.384Z,1.00
2019-01-28T10:02:23.705Z,0.93
2019-01-28T10:04:52.752Z,1.12
2019-01-28T10:07:22.082Z,0.80
2019-01-28T10:09:51.004Z,1.00
2019-01-28T10:12:20.344Z,1.22
2019-01-28T10:14:49.346Z,0.90
2019-01-28T10:17:18.353Z,0.93
2019-01-28T10:19:47.753Z,1.10
2019-01-28T10:22:16.804Z,1.20
2019-01-28T10:24:45.732Z,2.08
2019-01-28T10:27:14.733Z,1.60
2019-01-28T10:29:43.745Z,1.60
2019-01-28T10:32:13.033Z,1.27
2019-01-28T10:34:41.971Z,1.20
2019-01-28T10:37:10.977Z,1.40
2019-01-28T10:39:39.984Z,1.80
2019-01-28T10:42:09.981Z,1.10
2019-01-28T10:44:39.323Z,1.00
2019-01-28T10:47:08.712Z,1.20
2019-01-28T10:49:38.030Z,1.15
2019-01-28T10:52:07.044Z,1.00
2019-01-28T10:54:36.058Z,1.00
2019-01-28T10:57:05.517Z,0.90
2019-01-28T10:59:34.565Z,1.10
2019-01-28T11:02:03.641Z,1.15
2019-01-28T11:04:32.624Z,1.30
2019-01-28T11:07:01.621Z,1.00
2019-01-28T11:09:30.731Z,1.50
2019-01-28T11:12:00.137Z,1.20
2019-01-28T11:14:29.443Z,1.07
2019-01-28T11:16:58.484Z,0.80
2019-01-28T11:19:27.613Z,1.05
2019-01-28T11:21:56.560Z,1.20
2019-01-28T11:24:25.592Z,1.02
2019-01-28T11:26:54.644Z,1.20
2019-01-28T11:29:23.905Z,1.35
2019-01-28T11:31:52.891Z,1.10
2019-01-28T11:34:21.884Z,1.30
2019-01-28T11:36:51.196Z,1.40
2019-01-28T11:39:20.344Z,1.37
2019-01-28T11:41:49.401Z,1.10
2019-01-28T11:44:18.424Z,1.30
2019-01-28T11:46:47.512Z,1.15
2019-01-28T11:49:16.646Z,1.77
2019-01-28T11:51:45.706Z,1.15
2019-01-28T11:54:14.985Z,1.25
2019-01-28T11:56:43.926Z,1.10
2019-01-28T11:59:15.051Z,1.50
2019-01-28T12:01:44.223Z,1.20
2019-01-28T12:04:13.504Z,1.40
2019-01-28T12:06:42.504Z,1.50
2019-01-28T12:09:11.863Z,2.30
2019-01-28T12:11:40.846Z,1.87
2019-01-28T12:14:09.844Z,1.90
2019-01-28T12:16:39.092Z,2.08
2019-01-28T12:19:14.046Z,2.20
2019-01-28T12:21:38.844Z,1.95
2019-01-28T12:24:07.850Z,2.60
2019-01-28T12:26:36.776Z,2.70
2019-01-28T12:29:06.345Z,1.70
2019-01-28T12:31:36.890Z,1.50
2019-01-28T12:34:06.245Z,2.08
2019-01-28T12:36:35.334Z,2.15
2019-01-28T12:39:07.368Z,2.10
2019-01-28T12:41:36.373Z,2.37
2019-01-28T12:44:05.369Z,1.85
2019-01-28T12:46:34.380Z,1.50
2019-01-28T12:49:03.388Z,1.87
2019-01-28T12:51:32.363Z,1.42
2019-01-28T12:54:01.342Z,1.80
2019-01-28T12:56:30.337Z,1.45
2019-01-28T12:58:59.320Z,1.50
2019-01-28T13:01:28.334Z,1.70
2019-01-28T13:03:57.354Z,1.55
2019-01-28T13:06:26.372Z,2.27
2019-01-28T13:08:55.373Z,1.67
2019-01-28T13:11:24.703Z,2.00
2019-01-28T13:13:53.698Z,1.50
2019-01-28T13:16:23.007Z,1.62
2019-01-28T13:18:52.001Z,1.90
2019-01-28T13:21:21.306Z,1.80
2019-01-28T13:23:50.250Z,1.30
2019-01-28T13:26:19.246Z,1.50
2019-01-28T13:28:48.472Z,1.70
2019-01-28T13:31:17.465Z,1.50
2019-01-28T13:33:46.465Z,1.40
2019-01-28T13:36:15.468Z,1.30
2019-01-28T13:38:44.481Z,1.22
2019-01-28T13:41:13.762Z,1.72
2019-01-28T13:43:42.698Z,1.60
2019-01-28T13:46:11.942Z,1.60
2019-01-28T13:48:41.289Z,1.50
2019-01-28T13:51:10.692Z,2.10
2019-01-28T13:53:39.705Z,1.80
2019-01-28T13:56:08.689Z,1.40
2019-01-28T13:58:37.952Z,1.20
2019-01-28T14:01:07.136Z,1.10
2019-01-28T14:03:36.055Z,1.30
2019-01-28T14:06:05.252Z,1.67
2019-01-28T14:08:34.522Z,1.43
2019-01-28T14:11:03.508Z,1.20
2019-01-28T14:13:32.802Z,1.33
2019-01-28T14:16:01.793Z,1.70
2019-01-28T14:18:31.091Z,1.60
2019-01-28T14:21:02.701Z,1.20
2019-01-28T14:23:31.646Z,1.47
2019-01-28T14:26:00.636Z,0.90
2019-01-28T14:28:29.640Z,0.90
2019-01-28T14:30:59.334Z,1.20
2019-01-28T14:33:28.631Z,1.13
2019-01-28T14:35:57.640Z,1.60
2019-01-28T14:38:26.664Z,0.83
2019-01-28T14:40:56.121Z,1.73
2019-01-28T14:43:25.201Z,1.10
2019-01-28T14:45:54.199Z,0.97
2019-01-28T14:48:23.197Z,1.07
2019-01-28T14:50:52.213Z,0.90
2019-01-28T14:53:21.222Z,0.90
2019-01-28T14:55:50.167Z,0.90
2019-01-28T14:58:19.169Z,1.20
2019-01-28T15:00:48.180Z,0.87
2019-01-28T15:03:17.196Z,1.40
2019-01-28T15:05:46.208Z,1.37
2019-01-28T15:08:15.238Z,1.20
2019-01-28T15:10:44.230Z,1.30
2019-01-28T15:13:13.529Z,1.10
2019-01-28T15:15:42.849Z,1.73
2019-01-28T15:18:15.497Z,2.50
2019-01-28T15:20:44.594Z,1.00
2019-01-28T15:23:13.843Z,1.10
2019-01-28T15:25:43.128Z,2.80
2019-01-28T15:28:12.615Z,1.00
2019-01-28T15:30:41.926Z,1.60
2019-01-28T15:33:11.214Z,2.45
2019-01-28T15:35:41.472Z,7.00
2019-01-28T15:38:10.640Z,3.40
2019-01-28T15:40:40.433Z,1.67
2019-01-28T16:00:33.465Z,1.33
2019-01-28T16:10:28.584Z,3.05
2019-01-28T16:12:58.281Z,3.20
2019-01-28T16:15:35.820Z,1.65
2019-01-28T16:18:08.800Z,1.80
2019-01-28T16:20:37.842Z,2.27
2019-01-28T16:23:07.972Z,2.95
2019-01-28T16:25:37.909Z,2.00
2019-01-28T16:28:07.931Z,1.50
2019-01-28T16:30:37.869Z,1.37
2019-01-28T16:33:07.345Z,2.00
2019-01-28T16:35:36.653Z,1.72
2019-01-28T16:38:06.077Z,1.80
2019-01-28T16:40:35.836Z,1.30
2019-01-28T16:43:05.928Z,2.08
2019-01-28T16:45:35.083Z,2.00
2019-01-28T16:48:04.846Z,2.20
2019-01-28T16:50:34.598Z,2.30
2019-01-28T16:53:03.688Z,4.53
2019-01-28T16:55:33.687Z,2.65
2019-01-28T16:58:04.566Z,1.90
2019-01-28T17:00:37.261Z,3.55
2019-01-28T17:03:08.594Z,3.35
2019-01-28T17:05:38.980Z,2.52
2019-01-28T17:08:09.161Z,2.40
2019-01-28T17:10:39.067Z,3.20
2019-01-28T17:13:09.478Z,2.98
2019-01-28T17:15:39.097Z,2.75
2019-01-28T17:18:09.089Z,2.90
2019-01-28T17:20:38.825Z,3.33
2019-01-28T17:23:09.251Z,2.80
2019-01-28T17:25:46.765Z,3.55
2019-01-28T17:28:16.257Z,3.70
2019-01-28T17:30:48.744Z,4.25
2019-01-28T17:33:18.673Z,2.80
2019-01-28T17:35:48.408Z,3.00
2019-01-28T17:38:18.280Z,2.20
2019-01-28T17:40:47.932Z,2.70
2019-01-28T17:43:19.586Z,2.70
2019-01-28T17:45:50.138Z,2.70
2019-01-28T17:48:21.057Z,2.25
2019-01-28T17:50:51.959Z,2.10
2019-01-28T17:53:22.597Z,2.50
2019-01-28T17:55:53.628Z,2.72
2019-01-28T17:58:24.801Z,2.65
2019-01-28T18:00:57.813Z,3.55
2019-01-28T18:03:30.437Z,3.00
2019-01-28T18:06:00.897Z,2.42
2019-01-28T18:08:32.037Z,2.67
2019-01-28T18:11:03.869Z,2.40
2019-01-28T18:13:37.184Z,2.20
2019-01-28T18:16:08.556Z,2.60
2019-01-28T18:18:39.633Z,1.97
2019-01-28T18:28:47.719Z,1.53
2019-01-28T18:31:21.561Z,2.10
2019-01-28T18:33:52.891Z,2.30
2019-01-28T18:36:25.504Z,2.00
2019-01-28T18:38:57.520Z,2.20
2019-01-28T18:41:30.060Z,2.62
2019-01-28T18:44:02.644Z,3.70
2019-01-28T18:46:34.899Z,3.17
2019-01-28T18:49:07.937Z,1.97
2019-01-28T18:51:39.472Z,2.37
2019-01-28T18:54:10.631Z,2.17
2019-01-28T18:56:42.768Z,2.80
2019-01-28T18:59:15.334Z,1.97
2019-01-28T19:01:47.324Z,1.53
2019-01-28T19:04:19.030Z,1.90
2019-01-28T19:07:09.411Z,1.70
2019-01-28T19:09:47.948Z,1.80
2019-01-28T19:12:36.687Z,2.00
2019-01-28T19:15:29.297Z,1.70
2019-01-28T19:18:14.375Z,1.23
2019-01-28T19:21:11.881Z,1.90
2019-01-28T19:23:45.381Z,1.50
2019-01-28T19:26:18.130Z,1.40
2019-01-28T19:28:50.855Z,1.50
2019-01-28T19:31:23.621Z,2.07
2019-01-28T19:33:56.138Z,1.80
2019-01-28T19:36:28.876Z,1.70
2019-01-28T19:39:02.353Z,1.90
2019-01-28T19:41:35.888Z,1.70
2019-01-28T19:44:08.948Z,1.70
2019-01-28T19:46:41.992Z,3.30
2019-01-28T19:49:15.413Z,4.03
2019-01-28T19:51:48.472Z,2.50
2019-01-28T19:54:23.565Z,2.77
2019-01-28T19:57:15.321Z,2.80
2019-01-28T19:59:48.140Z,3.03
2019-01-28T20:02:22.148Z,2.00
2019-01-28T20:04:54.934Z,1.60
2019-01-28T20:07:28.596Z,1.83
2019-01-28T20:10:02.081Z,2.00
2019-01-28T20:12:36.122Z,2.00
2019-01-28T20:15:10.612Z,1.80
2019-01-28T20:17:43.756Z,1.97
2019-01-28T20:20:17.601Z,1.80
2019-01-28T20:22:49.755Z,2.20
2019-01-28T20:25:41.484Z,2.80
2019-01-28T20:28:18.091Z,3.40
2019-01-28T20:30:50.781Z,2.87
2019-01-28T20:33:23.653Z,2.63
2019-01-28T20:36:14.792Z,2.50
2019-01-28T20:38:48.073Z,2.23
2019-01-28T20:41:22.884Z,1.73
2019-01-28T20:43:55.825Z,1.70
2019-01-28T20:46:30.476Z,2.27
2019-01-28T20:49:05.477Z,1.87
2019-01-28T20:51:38.048Z,1.90
2019-01-28T20:54:10.372Z,2.00
2019-01-28T20:56:42.753Z,2.50
2019-01-28T20:59:14.876Z,1.70
2019-01-28T21:01:47.018Z,2.00
2019-01-28T21:04:19.401Z,2.57
2019-01-28T21:06:51.686Z,2.03
2019-01-28T21:09:24.829Z,2.50
2019-01-28T21:11:56.582Z,1.93
2019-01-28T21:14:28.685Z,1.93
2019-01-28T21:17:19.117Z,2.27
2019-01-28T21:19:50.269Z,3.13
2019-01-28T21:22:22.211Z,2.07
2019-01-28T21:24:53.736Z,2.10
2019-01-28T21:27:25.428Z,2.33
2019-01-28T21:29:56.915Z,2.20
2019-01-28T21:32:47.816Z,2.30
2019-01-28T21:35:29.855Z,1.93
2019-01-28T21:38:03.820Z,2.03
2019-01-28T21:40:34.922Z,2.67
2019-01-28T21:43:05.102Z,2.60
2019-01-28T21:45:36.233Z,2.43
2019-01-28T21:48:07.502Z,2.20
2019-01-28T21:50:39.097Z,2.83
2019-01-28T21:53:09.634Z,1.90
2019-01-28T21:55:40.926Z,1.93
2019-01-28T21:58:10.477Z,2.93
2019-01-28T22:00:40.590Z,3.13
2019-01-28T22:03:10.284Z,2.87
2019-01-28T22:05:40.717Z,2.73
2019-01-28T22:08:11.067Z,3.27
2019-01-28T22:10:41.248Z,2.60
2019-01-28T22:13:10.885Z,3.60
2019-01-28T22:15:39.908Z,3.43
2019-01-28T22:18:08.947Z,2.93
2019-01-28T22:20:37.949Z,4.00
2019-01-28T22:23:06.940Z,3.77
2019-01-28T22:25:35.938Z,3.20
2019-01-28T22:28:05.180Z,3.23
2019-01-28T22:30:34.725Z,3.13
2019-01-28T22:33:03.733Z,2.73
2019-01-28T22:35:32.725Z,3.10
2019-01-28T22:38:01.599Z,3.70
2019-01-28T22:40:30.584Z,3.73
2019-01-28T22:43:00.632Z,3.90
2019-01-28T22:45:29.641Z,3.53
2019-01-28T22:48:17.765Z,3.60
2019-01-28T22:50:46.759Z,3.10
2019-01-28T22:53:15.601Z,3.37
2019-01-28T22:55:44.592Z,3.23
2019-01-28T22:58:13.512Z,3.20
2019-01-28T23:00:52.049Z,3.30
2019-01-28T23:03:23.481Z,2.90
2019-01-28T23:05:52.490Z,3.07
2019-01-28T23:08:22.173Z,3.30
2019-01-28T23:10:51.177Z,3.50
2019-01-28T23:13:20.801Z,3.63
2019-01-28T23:15:49.880Z,2.90
2019-01-28T23:18:18.793Z,3.43
2019-01-28T23:20:47.784Z,3.03
2019-01-28T23:23:16.781Z,3.03
2019-01-28T23:25:45.709Z,3.17
2019-01-28T23:28:14.694Z,4.10
2019-01-28T23:30:44.349Z,2.97
2019-01-28T23:33:13.328Z,2.47
2019-01-28T23:35:42.328Z,2.27
2019-01-28T23:38:11.324Z,3.07
2019-01-28T23:40:40.322Z,2.90
2019-01-28T23:43:09.605Z,2.93
2019-01-28T23:45:38.597Z,2.57
2019-01-28T23:48:07.798Z,2.40
2019-01-28T23:50:36.814Z,2.83
2019-01-28T23:53:06.293Z,2.30
2019-01-28T23:55:35.222Z,3.00
2019-01-28T23:58:11.064Z,2.87
